Time;durP1;ratioP1;P1;durP2;ratioP2;P2;SDS_P1;SDS_P2;PMS_P1;PMS_P2;Temp;Humidity;BMP_temperature;BMP_pressure;BME280_temperature;BME280_humidity;BME280_pressure;Samples;Min_cycle;Max_cycle;Signal;HPM_P1;HPM_P2
2023/01/15 00:01:00;;;;;;;0.40;0.40;;;8.60;99.90;;;;;;4989766;28;20237;-76
2023/01/15 00:03:29;;;;;;;1.47;1.00;;;8.50;99.90;;;;;;4989581;28;20312;-76
2023/01/15 00:05:56;;;;;;;0.87;0.80;;;8.50;99.90;;;;;;4990154;28;20206;-76
2023/01/15 00:08:23;;;;;;;1.13;1.03;;;8.50;99.90;;;;;;4989892;28;20293;-76
2023/01/15 00:10:50;;;;;;;0.60;0.60;;;8.50;99.90;;;;;;4990134;28;20301;-76
2023/01/15 00:13:17;;;;;;;0.80;0.60;;;8.50;99.90;;;;;;4989631;28;20260;-76
2023/01/15 00:15:44;;;;;;;0.80;0.80;;;8.50;99.90;;;;;;4987040;28;20234;-79
2023/01/15 00:18:11;;;;;;;0.63;0.63;;;8.50;99.90;;;;;;4988873;28;20741;-79
2023/01/15 00:20:39;;;;;;;0.50;0.50;;;8.50;99.90;;;;;;4989610;28;20676;-78
2023/01/15 00:27:37;;;;;;;0.80;0.80;;;8.50;99.90;;;;;;4989596;28;20210;-78
2023/01/15 00:28:40;;;;;;;0.57;0.50;;;8.50;99.90;;;;;;4989889;28;20237;-78
2023/01/15 00:31:07;;;;;;;0.70;0.70;;;8.50;99.90;;;;;;4989590;28;20308;-78
2023/01/15 00:33:34;;;;;;;0.60;0.60;;;8.50;99.90;;;;;;4989545;28;20238;-78
2023/01/15 00:36:02;;;;;;;0.57;0.57;;;8.50;99.90;;;;;;4989741;28;20296;-77
2023/01/15 00:38:29;;;;;;;0.60;0.60;;;8.50;99.90;;;;;;4989622;28;20230;-77
2023/01/15 00:40:56;;;;;;;0.50;0.50;;;8.60;99.90;;;;;;4988655;28;20695;-77
2023/01/15 00:43:23;;;;;;;0.43;0.43;;;8.60;99.90;;;;;;4979473;28;20675;-77
2023/01/15 00:45:50;;;;;;;0.50;0.50;;;8.60;99.90;;;;;;4988830;28;20328;-76
2023/01/15 00:48:17;;;;;;;0.60;0.60;;;8.60;99.90;;;;;;4969855;28;20290;-76
2023/01/15 00:50:44;;;;;;;0.40;0.40;;;8.60;99.90;;;;;;4986479;28;20234;-79
2023/01/15 00:53:12;;;;;;;0.57;0.57;;;8.50;99.90;;;;;;4989006;28;20210;-81
2023/01/15 00:55:39;;;;;;;0.47;0.47;;;8.60;99.90;;;;;;4989424;28;20297;-79
2023/01/15 00:58:06;;;;;;;0.30;0.30;;;8.60;99.90;;;;;;4989364;28;20297;-79
2023/01/15 01:00:33;;;;;;;0.50;0.50;;;8.60;99.90;;;;;;4988855;28;20877;-80
2023/01/15 01:03:00;;;;;;;0.53;0.43;;;8.60;99.90;;;;;;4989039;28;20297;-79
2023/01/15 01:05:26;;;;;;;2.93;0.60;;;8.60;99.90;;;;;;4989208;28;20206;-80
2023/01/15 01:07:53;;;;;;;0.47;0.47;;;8.60;99.90;;;;;;4989108;28;20317;-79
2023/01/15 01:10:22;;;;;;;0.30;0.30;;;8.60;99.90;;;;;;4988818;28;20194;-80
2023/01/15 01:12:50;;;;;;;0.97;0.60;;;8.70;99.90;;;;;;4989207;28;20559;-77
2023/01/15 01:15:17;;;;;;;0.80;0.40;;;8.70;99.90;;;;;;4987592;28;20210;-77
2023/01/15 01:17:44;;;;;;;0.30;0.30;;;8.70;99.90;;;;;;4969710;28;20293;-77
2023/01/15 01:20:13;;;;;;;0.33;0.33;;;8.80;99.90;;;;;;4969353;28;20206;-77
2023/01/15 01:22:41;;;;;;;0.30;0.30;;;8.80;99.90;;;;;;4979262;28;20685;-77
2023/01/15 01:25:09;;;;;;;0.40;0.30;;;8.80;99.90;;;;;;4991028;28;20208;-76
2023/01/15 01:27:37;;;;;;;0.47;0.47;;;8.80;99.90;;;;;;4969447;28;20236;-79
2023/01/15 01:30:05;;;;;;;1.10;0.57;;;8.90;99.90;;;;;;4986032;28;20739;-77
2023/01/15 01:32:32;;;;;;;0.50;0.50;;;8.90;99.90;;;;;;4988332;28;20214;-78
2023/01/15 01:34:59;;;;;;;0.43;0.43;;;9.00;99.90;;;;;;4988766;28;20210;-77
2023/01/15 01:37:26;;;;;;;0.30;0.30;;;9.00;99.90;;;;;;4988318;28;20306;-77
2023/01/15 01:39:54;;;;;;;0.50;0.50;;;9.00;99.90;;;;;;4988215;28;20252;-77
2023/01/15 01:42:21;;;;;;;0.63;0.40;;;9.00;99.90;;;;;;4988500;28;20284;-77
2023/01/15 01:45:23;;;;;;;0.30;0.30;;;9.00;99.90;;;;;;4988547;28;20567;-77
2023/01/15 01:47:51;;;;;;;0.50;0.27;;;9.00;99.90;;;;;;4956450;28;20639;-77
2023/01/15 01:50:18;;;;;;;1.13;0.50;;;9.00;99.90;;;;;;4988415;28;20206;-77
2023/01/15 01:52:49;;;;;;;0.37;0.37;;;9.00;99.90;;;;;;4988779;28;20246;-77
2023/01/15 01:55:18;;;;;;;0.40;0.40;;;9.00;99.90;;;;;;4988186;28;20310;-78
2023/01/15 01:57:46;;;;;;;0.30;0.30;;;9.00;99.90;;;;;;4988145;28;20285;-77
2023/01/15 02:00:14;;;;;;;0.77;0.40;;;9.00;99.90;;;;;;4988337;28;20658;-78
2023/01/15 02:02:46;;;;;;;1.13;0.30;;;9.00;99.90;;;;;;4968666;28;20289;-77
2023/01/15 02:05:30;;;;;;;0.37;0.30;;;9.00;99.90;;;;;;4968982;28;20230;-78
2023/01/15 02:07:57;;;;;;;0.30;0.30;;;9.00;99.90;;;;;;4969033;28;20282;-78
2023/01/15 02:10:24;;;;;;;0.23;0.20;;;9.00;99.90;;;;;;4972918;28;20289;-78
2023/01/15 02:12:59;;;;;;;0.10;0.10;;;9.00;99.90;;;;;;4988559;28;20305;-78
2023/01/15 02:15:32;;;;;;;1.23;0.23;;;9.00;99.90;;;;;;5001362;28;20295;-79
2023/01/15 02:18:10;;;;;;;0.60;0.17;;;9.00;99.90;;;;;;4988267;28;20292;-78
2023/01/15 02:20:42;;;;;;;1.83;0.60;;;9.00;99.90;;;;;;4982640;28;20653;-79
2023/01/15 02:23:50;;;;;;;0.63;0.30;;;9.00;99.90;;;;;;4982873;28;20198;-78
2023/01/15 02:26:46;;;;;;;0.17;0.17;;;9.00;99.90;;;;;;4986437;28;20296;-78
2023/01/15 02:29:18;;;;;;;0.40;0.40;;;9.00;99.90;;;;;;4968249;28;20191;-80
2023/01/15 02:31:49;;;;;;;0.50;0.50;;;8.90;99.90;;;;;;4975923;28;20289;-80
2023/01/15 02:34:22;;;;;;;0.63;0.53;;;8.90;99.90;;;;;;4991655;28;20202;-84
2023/01/15 02:36:54;;;;;;;0.40;0.40;;;8.90;99.90;;;;;;4991752;28;20296;-79
2023/01/15 02:39:23;;;;;;;0.33;0.33;;;8.80;99.90;;;;;;4991350;28;20190;-77
2023/01/15 02:41:55;;;;;;;1.70;0.50;;;8.80;99.90;;;;;;4991743;28;20344;-77
2023/01/15 02:44:25;;;;;;;0.13;0.13;;;8.80;99.90;;;;;;4991571;28;20289;-77
2023/01/15 02:46:53;;;;;;;0.30;0.30;;;8.80;99.90;;;;;;4991874;28;20220;-77
2023/01/15 02:49:22;;;;;;;0.97;0.20;;;8.80;99.90;;;;;;4991507;28;20214;-78
2023/01/15 02:51:54;;;;;;;0.30;0.27;;;8.80;99.90;;;;;;4992036;28;20297;-77
2023/01/15 02:54:23;;;;;;;0.57;0.23;;;8.80;99.90;;;;;;4991183;28;20653;-78
2023/01/15 02:56:53;;;;;;;0.20;0.20;;;8.80;99.90;;;;;;4972466;28;20213;-76
2023/01/15 02:59:23;;;;;;;0.47;0.40;;;8.80;99.90;;;;;;4974340;28;20643;-77
2023/01/15 03:01:55;;;;;;;0.47;0.30;;;8.80;99.90;;;;;;4991345;28;20229;-77
2023/01/15 03:04:28;;;;;;;0.83;0.40;;;8.80;99.90;;;;;;4991290;28;20197;-77
2023/01/15 03:07:01;;;;;;;0.97;0.30;;;8.80;99.90;;;;;;4991257;28;20200;-78
2023/01/15 03:09:29;;;;;;;0.50;0.50;;;8.80;99.90;;;;;;4991256;28;20190;-79
2023/01/15 03:12:04;;;;;;;0.33;0.30;;;8.80;99.90;;;;;;4991679;28;20222;-79
2023/01/15 03:14:39;;;;;;;2.33;0.40;;;8.80;99.90;;;;;;4991263;28;20229;-78
2023/01/15 03:17:14;;;;;;;0.20;0.20;;;8.80;99.90;;;;;;4980365;28;20233;-79
2023/01/15 03:19:48;;;;;;;0.30;0.20;;;8.80;99.90;;;;;;4990844;28;20644;-77
2023/01/15 03:22:21;;;;;;;0.20;0.10;;;8.80;99.90;;;;;;4990986;28;20221;-79
2023/01/15 03:24:52;;;;;;;0.20;0.20;;;8.80;99.90;;;;;;4991285;28;20224;-80
2023/01/15 03:27:20;;;;;;;0.40;0.40;;;8.80;99.90;;;;;;4991122;28;20376;-78
2023/01/15 03:29:50;;;;;;;0.27;0.27;;;8.80;99.90;;;;;;4991059;28;20614;-78
2023/01/15 03:32:18;;;;;;;0.20;0.20;;;8.80;99.90;;;;;;4990918;28;20654;-78
2023/01/15 03:34:49;;;;;;;0.30;0.30;;;8.80;99.90;;;;;;4990962;28;20214;-78
2023/01/15 03:37:16;;;;;;;0.53;0.27;;;8.80;99.90;;;;;;4990515;28;20217;-78
2023/01/15 03:39:44;;;;;;;0.37;0.37;;;8.80;99.90;;;;;;4991127;28;20208;-78
2023/01/15 03:42:25;;;;;;;0.20;0.20;;;8.80;99.90;;;;;;4991048;28;20240;-78
2023/01/15 03:44:59;;;;;;;0.20;0.20;;;8.80;99.90;;;;;;4989938;28;20835;-77
2023/01/15 03:47:38;;;;;;;0.10;0.10;;;8.80;99.90;;;;;;4990338;28;20245;-77
2023/01/15 03:50:15;;;;;;;0.40;0.40;;;8.80;99.90;;;;;;4990326;28;20194;-76
2023/01/15 03:52:46;;;;;;;0.27;0.27;;;8.70;99.90;;;;;;4991034;28;20202;-77
2023/01/15 03:55:15;;;;;;;2.00;0.50;;;8.80;99.90;;;;;;4971536;28;20294;-77
2023/01/15 03:57:50;;;;;;;0.70;0.30;;;8.80;99.90;;;;;;4990720;28;20206;-76
2023/01/15 04:00:23;;;;;;;0.40;0.40;;;8.50;99.90;;;;;;4970721;28;20234;-76
2023/01/15 04:02:52;;;;;;;0.97;0.30;;;8.20;99.90;;;;;;4971098;28;20262;-76
2023/01/15 04:05:20;;;;;;;1.73;0.40;;;8.00;99.90;;;;;;4970707;28;20571;-78
2023/01/15 04:07:49;;;;;;;0.27;0.27;;;7.80;99.90;;;;;;4970464;28;20298;-77
2023/01/15 04:10:16;;;;;;;1.27;0.30;;;7.70;99.90;;;;;;4970403;28;20210;-76
2023/01/15 04:12:44;;;;;;;0.50;0.27;;;7.50;99.90;;;;;;4971420;28;20297;-77
2023/01/15 04:15:11;;;;;;;0.50;0.50;;;7.50;99.90;;;;;;4989600;28;20276;-77
2023/01/15 04:17:38;;;;;;;0.47;0.20;;;7.40;99.90;;;;;;4989746;28;20380;-77
2023/01/15 04:20:07;;;;;;;0.40;0.30;;;7.40;99.90;;;;;;4989935;28;20284;-76
2023/01/15 04:22:34;;;;;;;0.40;0.30;;;7.30;99.90;;;;;;4989475;28;20426;-77
2023/01/15 04:25:01;;;;;;;1.23;0.40;;;7.20;99.90;;;;;;4976824;28;20207;-77
2023/01/15 04:27:28;;;;;;;0.43;0.40;;;7.20;99.90;;;;;;4984183;28;20258;-77
2023/01/15 04:29:56;;;;;;;0.30;0.27;;;7.20;99.90;;;;;;4989326;28;20300;-77
2023/01/15 04:32:23;;;;;;;0.40;0.40;;;7.10;99.90;;;;;;4989514;28;20293;-76
2023/01/15 04:34:50;;;;;;;0.97;0.33;;;7.10;99.90;;;;;;4989828;28;20206;-77
2023/01/15 04:37:18;;;;;;;0.30;0.30;;;7.10;99.90;;;;;;4989364;28;20206;-75
2023/01/15 04:39:47;;;;;;;0.83;0.30;;;7.20;99.90;;;;;;4989241;28;20301;-75
2023/01/15 04:45:00;;;;;;;1.60;0.53;;;7.00;99.90;;;;;;4989341;28;20189;-78
2023/01/15 04:47:30;;;;;;;0.70;0.60;;;6.80;99.90;;;;;;4989146;28;20689;-78
2023/01/15 04:49:57;;;;;;;0.20;0.20;;;6.70;99.90;;;;;;4989492;28;20292;-78
2023/01/15 04:52:24;;;;;;;0.20;0.20;;;6.60;99.90;;;;;;4989121;28;20305;-77
2023/01/15 04:54:50;;;;;;;1.00;0.40;;;6.60;99.90;;;;;;4988863;28;20206;-75
2023/01/15 04:57:17;;;;;;;0.63;0.30;;;6.50;99.90;;;;;;4987790;28;20233;-74
2023/01/15 04:59:44;;;;;;;0.67;0.30;;;6.40;99.90;;;;;;4988816;28;20321;-74
2023/01/15 05:02:12;;;;;;;0.20;0.20;;;6.40;99.90;;;;;;4989103;28;20280;-75
2023/01/15 05:04:39;;;;;;;1.03;0.20;;;6.40;99.90;;;;;;4988742;28;20213;-75
2023/01/15 05:07:06;;;;;;;0.57;0.30;;;6.40;99.90;;;;;;4988578;28;20292;-74
2023/01/15 05:09:33;;;;;;;1.67;0.27;;;6.30;99.90;;;;;;4988916;28;20338;-74
2023/01/15 05:12:00;;;;;;;0.33;0.23;;;6.30;99.90;;;;;;4988906;28;20242;-74
2023/01/15 05:14:27;;;;;;;2.90;0.57;;;6.30;99.90;;;;;;4988932;28;20202;-75
2023/01/15 05:16:54;;;;;;;0.33;0.30;;;6.30;99.90;;;;;;4986430;28;20242;-74
2023/01/15 05:19:22;;;;;;;1.20;0.30;;;6.20;99.90;;;;;;4988563;28;20297;-74
2023/01/15 05:21:50;;;;;;;0.50;0.20;;;6.20;99.90;;;;;;4988165;28;20572;-74
2023/01/15 05:24:18;;;;;;;1.40;0.50;;;6.20;99.90;;;;;;4977192;28;20244;-74
2023/01/15 05:26:45;;;;;;;1.33;0.50;;;6.20;99.90;;;;;;4988616;28;20236;-74
2023/01/15 05:29:14;;;;;;;0.97;0.20;;;6.20;99.90;;;;;;4988179;28;20300;-74
2023/01/15 05:31:43;;;;;;;0.33;0.20;;;6.20;99.90;;;;;;4988288;28;20290;-76
2023/01/15 05:34:11;;;;;;;0.57;0.20;;;6.20;99.90;;;;;;4988658;28;20309;-75
2023/01/15 05:36:39;;;;;;;2.20;0.20;;;6.20;99.90;;;;;;4988471;28;20616;-76
2023/01/15 05:39:06;;;;;;;1.73;0.20;;;6.20;99.90;;;;;;4988860;28;20210;-77
2023/01/15 05:41:48;;;;;;;0.80;0.20;;;6.20;99.90;;;;;;4988758;28;20292;-77
2023/01/15 05:44:17;;;;;;;0.47;0.40;;;6.10;99.90;;;;;;4988406;28;20195;-76
2023/01/15 05:46:45;;;;;;;0.97;0.43;;;6.10;99.90;;;;;;4981323;28;20767;-75
2023/01/15 05:49:14;;;;;;;0.33;0.20;;;6.10;99.90;;;;;;4988713;28;20296;-77
2023/01/15 05:51:43;;;;;;;0.10;0.10;;;6.20;99.90;;;;;;4988334;28;20296;-77
2023/01/15 05:54:13;;;;;;;1.70;0.30;;;6.10;99.90;;;;;;4988639;28;20293;-77
2023/01/15 05:56:40;;;;;;;0.57;0.30;;;6.10;99.90;;;;;;4988097;28;20341;-77
2023/01/15 05:59:09;;;;;;;0.50;0.30;;;6.10;99.90;;;;;;4988222;28;20216;-77
2023/01/15 06:01:36;;;;;;;0.27;0.17;;;6.10;99.90;;;;;;4988169;28;20213;-77
2023/01/15 06:04:05;;;;;;;0.60;0.17;;;6.10;99.90;;;;;;4987939;28;20230;-76
2023/01/15 06:06:33;;;;;;;1.20;0.30;;;6.10;99.90;;;;;;4988170;28;20643;-76
2023/01/15 06:09:01;;;;;;;1.70;0.37;;;6.10;99.90;;;;;;4992383;28;20265;-76
2023/01/15 06:11:28;;;;;;;0.70;0.30;;;6.10;99.90;;;;;;4992214;28;20296;-76
2023/01/15 06:13:55;;;;;;;1.23;0.60;;;6.20;99.90;;;;;;4992402;28;20305;-76
2023/01/15 06:16:22;;;;;;;0.80;0.30;;;6.30;99.90;;;;;;4991706;28;20725;-76
2023/01/15 06:18:49;;;;;;;0.90;0.47;;;6.30;99.90;;;;;;4991717;28;20206;-76
2023/01/15 06:21:16;;;;;;;1.80;0.60;;;6.30;99.90;;;;;;4991744;28;20293;-76
2023/01/15 06:23:44;;;;;;;2.10;0.17;;;6.20;99.90;;;;;;5011195;28;20264;-76
2023/01/15 06:26:14;;;;;;;0.30;0.20;;;6.30;99.90;;;;;;5011580;28;20304;-75
2023/01/15 06:28:41;;;;;;;0.57;0.30;;;6.30;99.90;;;;;;4993452;28;20285;-77
2023/01/15 06:31:10;;;;;;;0.43;0.23;;;6.30;99.90;;;;;;4991922;28;20245;-76
2023/01/15 06:33:37;;;;;;;1.43;0.30;;;6.30;99.90;;;;;;4992022;28;20253;-76
2023/01/15 06:36:06;;;;;;;0.87;0.37;;;6.40;99.90;;;;;;4991526;28;20225;-75
2023/01/15 06:38:33;;;;;;;3.67;0.30;;;6.30;99.90;;;;;;4991629;28;20301;-75
2023/01/15 06:41:01;;;;;;;0.87;0.30;;;6.40;99.90;;;;;;4991589;28;20206;-76
2023/01/15 06:48:59;;;;;;;1.93;0.40;;;6.30;99.90;;;;;;4991315;28;20325;-78
2023/01/15 06:51:25;;;;;;;0.20;0.10;;;6.40;99.90;;;;;;4991043;28;20301;-76
2023/01/15 06:53:52;;;;;;;1.43;0.40;;;6.40;99.90;;;;;;4991775;28;20210;-77
2023/01/15 06:56:19;;;;;;;0.30;0.30;;;6.40;99.90;;;;;;4990852;28;20298;-77
2023/01/15 06:58:47;;;;;;;0.20;0.20;;;6.30;99.90;;;;;;4991483;28;20210;-77
2023/01/15 07:01:15;;;;;;;1.20;0.30;;;6.30;99.90;;;;;;4991415;28;20338;-78
2023/01/15 07:03:42;;;;;;;1.03;0.27;;;6.30;99.90;;;;;;4991032;28;20229;-76
2023/01/15 07:06:11;;;;;;;1.07;0.40;;;6.30;99.90;;;;;;4991196;28;20249;-76
2023/01/15 07:08:39;;;;;;;0.50;0.37;;;6.30;99.90;;;;;;4991146;28;20256;-76
2023/01/15 07:11:07;;;;;;;0.43;0.30;;;6.30;99.90;;;;;;4991515;28;20210;-76
2023/01/15 07:13:34;;;;;;;1.57;0.50;;;6.30;99.90;;;;;;4990653;28;20296;-76
2023/01/15 07:16:04;;;;;;;0.60;0.53;;;6.20;99.90;;;;;;4979931;28;20234;-76
2023/01/15 07:18:32;;;;;;;1.20;0.70;;;6.20;99.90;;;;;;4989594;28;20732;-76
2023/01/15 07:20:59;;;;;;;0.47;0.40;;;6.20;99.90;;;;;;4991043;28;20301;-76
2023/01/15 07:23:28;;;;;;;1.33;0.70;;;6.30;99.90;;;;;;4990604;28;20340;-76
2023/01/15 07:25:55;;;;;;;0.40;0.30;;;6.30;99.90;;;;;;4990978;28;20268;-75
2023/01/15 07:28:23;;;;;;;1.43;0.43;;;6.20;99.90;;;;;;4990478;28;20720;-76
2023/01/15 07:30:50;;;;;;;0.67;0.57;;;6.30;99.90;;;;;;4991025;28;20302;-75
2023/01/15 07:33:18;;;;;;;0.47;0.23;;;6.30;99.90;;;;;;4990321;28;20669;-76
2023/01/15 07:35:45;;;;;;;0.93;0.50;;;6.40;99.90;;;;;;4991036;28;20206;-75
2023/01/15 07:38:12;;;;;;;0.57;0.37;;;6.30;99.90;;;;;;4990739;28;20300;-76
2023/01/15 07:40:39;;;;;;;0.37;0.30;;;6.20;99.90;;;;;;4990872;28;20256;-77
2023/01/15 07:51:23;;;;;;;0.27;0.20;;;6.20;99.90;;;;;;4971129;28;20284;-76
2023/01/15 07:53:50;;;;;;;0.47;0.30;;;6.20;99.90;;;;;;4971103;28;20677;-75
2023/01/15 07:56:17;;;;;;;1.80;0.50;;;6.10;99.90;;;;;;4970650;28;20649;-76
2023/01/15 07:58:48;;;;;;;1.13;0.30;;;6.20;99.90;;;;;;4971326;28;20293;-76
2023/01/15 08:01:15;;;;;;;2.47;0.33;;;6.20;99.90;;;;;;4970927;28;20298;-75
2023/01/15 08:03:43;;;;;;;0.47;0.30;;;6.20;99.90;;;;;;4980590;28;20234;-76
2023/01/15 08:06:10;;;;;;;0.30;0.20;;;6.20;99.90;;;;;;4990467;28;20640;-77
2023/01/15 08:08:36;;;;;;;1.63;0.50;;;6.20;99.90;;;;;;4990023;28;20744;-77
2023/01/15 08:16:35;;;;;;;0.63;0.30;;;6.20;99.90;;;;;;4989818;28;20273;-77
2023/01/15 08:19:03;;;;;;;0.33;0.30;;;6.30;99.90;;;;;;4990017;28;21014;-78
2023/01/15 08:21:30;;;;;;;0.53;0.40;;;6.20;99.90;;;;;;4989713;28;20211;-78
2023/01/15 08:23:57;;;;;;;0.97;0.37;;;6.30;99.90;;;;;;4989892;28;20680;-79
2023/01/15 08:26:24;;;;;;;1.03;0.50;;;6.30;99.90;;;;;;4989590;28;20646;-75
2023/01/15 08:28:51;;;;;;;1.90;0.40;;;6.20;99.90;;;;;;4989684;28;20249;-75
2023/01/15 08:31:18;;;;;;;1.07;0.60;;;6.20;99.90;;;;;;4988552;28;20302;-76
2023/01/15 08:33:45;;;;;;;0.83;0.40;;;6.20;99.90;;;;;;4989336;28;20216;-77
2023/01/15 08:36:14;;;;;;;0.40;0.20;;;6.30;99.90;;;;;;4989435;28;20288;-77
2023/01/15 08:38:41;;;;;;;1.07;0.40;;;6.20;99.90;;;;;;4989421;28;20210;-78
2023/01/15 08:41:08;;;;;;;0.93;0.40;;;6.20;99.90;;;;;;4989103;28;20212;-77
2023/01/15 08:43:35;;;;;;;0.37;0.37;;;6.20;99.90;;;;;;4989275;28;20236;-78
2023/01/15 08:46:04;;;;;;;0.77;0.47;;;6.30;99.90;;;;;;4989016;28;20306;-76
2023/01/15 08:48:32;;;;;;;1.53;0.60;;;6.30;99.90;;;;;;4988607;28;20214;-77
2023/01/15 08:51:03;;;;;;;0.40;0.40;;;6.30;99.90;;;;;;4977019;28;20756;-76
2023/01/15 08:53:31;;;;;;;1.03;0.37;;;6.30;99.90;;;;;;4986675;28;20210;-76
2023/01/15 08:55:58;;;;;;;0.40;0.33;;;6.30;99.90;;;;;;4987483;28;20214;-77
2023/01/15 08:58:28;;;;;;;0.70;0.40;;;6.30;99.90;;;;;;4987548;28;20210;-76
2023/01/15 09:00:54;;;;;;;1.53;0.47;;;6.40;99.90;;;;;;4987722;28;20220;-77
2023/01/15 09:03:21;;;;;;;0.43;0.40;;;6.40;99.90;;;;;;4986821;28;20325;-77
2023/01/15 09:05:48;;;;;;;0.80;0.40;;;6.30;99.90;;;;;;4987061;28;20210;-78
2023/01/15 09:08:15;;;;;;;1.40;0.40;;;6.40;99.90;;;;;;4986962;28;20738;-77
2023/01/15 09:10:43;;;;;;;0.43;0.43;;;6.40;99.90;;;;;;4987151;28;20218;-77
2023/01/15 09:13:10;;;;;;;0.87;0.30;;;6.40;99.90;;;;;;4987207;28;20811;-77
2023/01/15 09:15:37;;;;;;;2.40;0.60;;;6.50;99.90;;;;;;4986780;28;20304;-76
2023/01/15 09:18:04;;;;;;;0.43;0.33;;;6.50;99.90;;;;;;4986843;28;20198;-77
2023/01/15 09:20:31;;;;;;;0.83;0.20;;;6.50;99.90;;;;;;4986694;28;20280;-77
2023/01/15 09:22:58;;;;;;;0.43;0.40;;;6.50;99.90;;;;;;4986193;28;20256;-77
2023/01/15 09:25:25;;;;;;;0.20;0.20;;;6.60;99.90;;;;;;4986735;28;20210;-77
2023/01/15 09:27:55;;;;;;;0.73;0.40;;;6.50;99.90;;;;;;4986537;28;20345;-77
2023/01/15 09:30:22;;;;;;;0.53;0.20;;;6.50;99.90;;;;;;4986291;28;20230;-76
2023/01/15 09:32:49;;;;;;;0.50;0.50;;;6.60;99.90;;;;;;4985844;28;20304;-76
2023/01/15 09:35:16;;;;;;;0.23;0.23;;;6.50;99.90;;;;;;4986450;28;20214;-76
2023/01/15 09:37:43;;;;;;;0.50;0.50;;;6.50;99.90;;;;;;4986425;28;20745;-76
2023/01/15 09:40:29;;;;;;;0.50;0.50;;;6.50;99.90;;;;;;4986248;28;20340;-77
2023/01/15 09:43:04;;;;;;;0.30;0.30;;;6.60;99.90;;;;;;4986319;28;20644;-77
2023/01/15 09:45:40;;;;;;;0.97;0.57;;;6.50;99.90;;;;;;4986613;28;20669;-77
2023/01/15 09:48:23;;;;;;;0.67;0.33;;;6.60;99.90;;;;;;4985991;28;20193;-77
2023/01/15 09:51:01;;;;;;;1.33;0.60;;;6.60;99.90;;;;;;4986461;28;20230;-80
2023/01/15 09:54:01;;;;;;;1.40;0.60;;;6.60;99.90;;;;;;4985795;28;20285;-77
2023/01/15 09:56:32;;;;;;;0.77;0.40;;;6.60;99.90;;;;;;4977396;28;20695;-78
2023/01/15 09:59:05;;;;;;;0.80;0.40;;;6.60;99.90;;;;;;4986178;28;20683;-76
2023/01/15 10:01:34;;;;;;;2.27;2.07;;;6.60;99.90;;;;;;4985926;28;20329;-77
2023/01/15 10:04:06;;;;;;;2.03;0.73;;;6.60;99.90;;;;;;4985369;28;20316;-71
2023/01/15 10:06:39;;;;;;;0.50;0.50;;;6.60;99.90;;;;;;4986555;28;20293;-77
2023/01/15 10:09:13;;;;;;;0.53;0.37;;;6.60;99.90;;;;;;4986261;28;20191;-76
2023/01/15 10:14:38;;;;;;;0.77;0.43;;;6.70;99.90;;;;;;4986208;28;20285;-78
2023/01/15 10:17:25;;;;;;;0.93;0.50;;;6.70;99.90;;;;;;4970896;28;20242;-77
2023/01/15 10:19:53;;;;;;;2.50;1.87;;;6.70;99.90;;;;;;4967089;28;20206;-77
2023/01/15 10:22:32;;;;;;;1.93;1.60;;;6.70;99.90;;;;;;4974335;28;20328;-77
2023/01/15 10:25:02;;;;;;;1.77;0.70;;;6.70;99.90;;;;;;4986554;28;20320;-77
2023/01/15 10:27:32;;;;;;;1.40;1.30;;;6.70;99.90;;;;;;4986650;28;20288;-77
2023/01/15 10:30:05;;;;;;;2.30;2.20;;;6.70;99.90;;;;;;4986196;28;20289;-76
2023/01/15 10:32:42;;;;;;;1.93;1.83;;;6.70;99.90;;;;;;4985825;28;20195;-77
2023/01/15 10:35:30;;;;;;;3.10;2.80;;;6.80;99.90;;;;;;4986397;28;20248;-76
2023/01/15 10:38:05;;;;;;;1.47;1.37;;;6.80;99.90;;;;;;4986255;28;20297;-77
2023/01/15 10:40:42;;;;;;;1.70;1.60;;;6.80;99.90;;;;;;4986483;28;20573;-77
2023/01/15 10:43:19;;;;;;;1.80;1.70;;;6.90;99.90;;;;;;4985727;28;20198;-76
2023/01/15 10:45:51;;;;;;;0.47;0.47;;;6.80;99.90;;;;;;4987640;28;20209;-76
2023/01/15 10:48:27;;;;;;;1.60;1.50;;;6.90;99.90;;;;;;4987579;28;20314;-75
2023/01/15 10:50:56;;;;;;;2.13;2.00;;;6.90;99.90;;;;;;4987252;28;20483;-74
2023/01/15 10:53:31;;;;;;;1.83;1.00;;;6.90;99.90;;;;;;4989021;28;20289;-74
2023/01/15 10:56:05;;;;;;;1.40;0.90;;;7.00;99.90;;;;;;4990645;28;20198;-78
2023/01/15 10:58:38;;;;;;;0.60;0.60;;;7.00;99.90;;;;;;4991101;28;20572;-77
2023/01/15 11:01:12;;;;;;;0.40;0.40;;;7.00;99.90;;;;;;4988975;28;20229;-79
2023/01/15 11:03:40;;;;;;;0.50;0.50;;;7.10;99.90;;;;;;4987786;28;20298;-78
2023/01/15 11:06:13;;;;;;;0.70;0.60;;;7.10;99.90;;;;;;4988972;28;20233;-79
2023/01/15 11:08:42;;;;;;;0.73;0.50;;;7.10;99.90;;;;;;4989338;28;20309;-78
2023/01/15 11:11:18;;;;;;;1.27;0.50;;;7.00;99.90;;;;;;4988956;28;20305;-78
2023/01/15 11:19:38;;;;;;;0.53;0.43;;;7.00;99.90;;;;;;4988716;28;20201;-78
2023/01/15 11:22:08;;;;;;;1.20;0.50;;;7.00;99.90;;;;;;4977144;28;20237;-78
2023/01/15 11:24:38;;;;;;;0.50;0.50;;;7.00;99.90;;;;;;4988877;28;20238;-79
2023/01/15 11:27:06;;;;;;;1.33;0.60;;;7.10;99.90;;;;;;4988338;28;20226;-78
2023/01/15 11:29:36;;;;;;;0.27;0.27;;;7.10;99.90;;;;;;4988747;28;20217;-78
2023/01/15 11:32:24;;;;;;;0.40;0.40;;;7.00;99.90;;;;;;4988575;28;20194;-78
2023/01/15 11:34:55;;;;;;;0.40;0.30;;;7.10;99.90;;;;;;4988492;28;20202;-76
2023/01/15 11:37:22;;;;;;;0.73;0.73;;;7.10;99.90;;;;;;4988522;28;20258;-78
2023/01/15 11:39:53;;;;;;;0.60;0.60;;;7.00;99.90;;;;;;4989128;28;20218;-77
2023/01/15 11:51:06;;;;;;;0.60;0.50;;;7.10;99.90;;;;;;4945882;29;20210;-79
2023/01/15 11:53:40;;;;;;;0.47;0.40;;;7.00;99.90;;;;;;4971442;28;20293;-78
2023/01/15 11:56:13;;;;;;;0.50;0.50;;;7.00;99.90;;;;;;4976519;28;20638;-78
2023/01/15 11:58:42;;;;;;;0.30;0.30;;;7.00;99.90;;;;;;4987935;28;20220;-78
2023/01/15 12:01:11;;;;;;;0.30;0.30;;;7.10;99.90;;;;;;4988546;28;20274;-78
2023/01/15 12:03:40;;;;;;;0.83;0.40;;;7.10;99.90;;;;;;4987843;28;20202;-79
2023/01/15 12:06:12;;;;;;;2.90;0.53;;;7.10;99.90;;;;;;4987670;28;20206;-78
2023/01/15 12:09:00;;;;;;;0.37;0.27;;;7.10;99.90;;;;;;4988228;28;20285;-79
2023/01/15 12:11:54;;;;;;;0.93;0.40;;;7.10;99.90;;;;;;4987872;28;20281;-78
2023/01/15 12:14:49;;;;;;;0.67;0.47;;;7.00;99.90;;;;;;4988186;28;20437;-78
2023/01/15 12:17:27;;;;;;;1.30;0.50;;;7.10;99.90;;;;;;4987062;28;20727;-79
2023/01/15 12:20:03;;;;;;;1.80;0.50;;;7.10;99.90;;;;;;4987830;28;20664;-79
2023/01/15 12:22:49;;;;;;;0.80;0.57;;;7.10;99.90;;;;;;4979437;28;20292;-79
2023/01/15 12:25:34;;;;;;;3.77;0.50;;;7.10;99.90;;;;;;4987018;28;20226;-78
2023/01/15 12:28:06;;;;;;;2.67;0.70;;;7.20;99.90;;;;;;4988058;28;20226;-78
2023/01/15 12:30:41;;;;;;;0.83;0.37;;;7.20;99.90;;;;;;4987637;28;20217;-78
2023/01/15 12:33:26;;;;;;;1.07;0.50;;;7.20;99.90;;;;;;4986832;28;20201;-78
2023/01/15 12:35:59;;;;;;;0.43;0.40;;;7.20;99.90;;;;;;4987997;28;20293;-79
2023/01/15 12:38:47;;;;;;;1.37;0.30;;;7.30;99.90;;;;;;4987090;28;20198;-79
2023/01/15 12:41:17;;;;;;;0.67;0.63;;;7.30;99.90;;;;;;4999017;28;20975;-78
2023/01/15 12:46:37;;;;;;;2.50;0.60;;;7.40;99.90;;;;;;4987053;28;20640;-78
2023/01/15 12:49:10;;;;;;;1.20;0.50;;;7.40;99.90;;;;;;4986868;28;20253;-78
2023/01/15 12:51:49;;;;;;;0.60;0.40;;;7.40;99.90;;;;;;4971691;28;20259;-78
2023/01/15 12:54:23;;;;;;;1.40;0.60;;;7.30;99.90;;;;;;4984672;28;20228;-78
2023/01/15 12:56:58;;;;;;;1.70;0.30;;;7.30;99.90;;;;;;4987003;28;20197;-78
2023/01/15 12:59:31;;;;;;;0.87;0.30;;;7.20;99.90;;;;;;4987304;28;20198;-79
2023/01/15 13:02:11;;;;;;;2.10;0.60;;;7.30;99.90;;;;;;4986669;28;20313;-78
2023/01/15 13:04:46;;;;;;;0.93;0.70;;;7.20;99.90;;;;;;4986671;28;20222;-78
2023/01/15 13:07:20;;;;;;;0.40;0.40;;;7.30;99.90;;;;;;4986847;28;20313;-78
2023/01/15 13:09:53;;;;;;;1.17;0.73;;;7.30;99.90;;;;;;4987087;28;20206;-78
2023/01/15 13:12:20;;;;;;;0.87;0.50;;;7.40;99.90;;;;;;4979184;28;20203;-79
2023/01/15 13:14:49;;;;;;;1.20;0.60;;;7.60;99.90;;;;;;4967223;28;20640;-79
2023/01/15 13:17:24;;;;;;;0.97;0.60;;;7.60;99.90;;;;;;4981407;28;20730;-79
2023/01/15 13:20:03;;;;;;;0.63;0.60;;;7.80;99.90;;;;;;4986107;28;20206;-79
2023/01/15 13:22:36;;;;;;;0.70;0.40;;;7.80;99.90;;;;;;4986436;28;20272;-78
2023/01/15 13:25:28;;;;;;;3.60;0.63;;;7.80;99.90;;;;;;4987073;28;20229;-77
2023/01/15 13:28:07;;;;;;;1.17;0.53;;;7.80;99.90;;;;;;4986526;28;20229;-79
2023/01/15 13:30:47;;;;;;;1.10;0.60;;;7.80;99.90;;;;;;4986150;28;20194;-78
2023/01/15 13:33:24;;;;;;;2.10;0.50;;;7.80;99.90;;;;;;4986331;28;20198;-78
2023/01/15 13:35:54;;;;;;;0.70;0.30;;;7.80;99.90;;;;;;4986881;28;20229;-79
2023/01/15 13:38:25;;;;;;;2.63;0.80;;;7.80;99.90;;;;;;4986429;28;20241;-78
2023/01/15 13:40:55;;;;;;;0.63;0.40;;;7.70;99.90;;;;;;4986477;28;20194;-78
2023/01/15 13:43:32;;;;;;;1.30;0.57;;;7.70;99.90;;;;;;4986364;28;20218;-78
2023/01/15 13:46:02;;;;;;;0.70;0.47;;;7.60;99.90;;;;;;4986558;28;20292;-78
2023/01/15 13:48:33;;;;;;;0.87;0.40;;;7.50;99.90;;;;;;4985815;28;20383;-78
2023/01/15 13:51:03;;;;;;;0.90;0.53;;;7.50;99.90;;;;;;4986329;28;20253;-78
2023/01/15 13:53:33;;;;;;;0.50;0.50;;;7.40;99.90;;;;;;4986261;28;20228;-78
2023/01/15 13:56:04;;;;;;;0.90;0.40;;;7.40;99.90;;;;;;4985548;28;20204;-78
2023/01/15 13:58:33;;;;;;;1.63;0.50;;;7.50;99.90;;;;;;4986613;28;20210;-78
2023/01/15 14:01:06;;;;;;;0.50;0.50;;;7.50;99.90;;;;;;4986907;28;20293;-79